createdAt,value
2022-12-22T00:00:38.499Z,18.27
2022-12-22T00:02:36.245Z,18.80
2022-12-22T00:04:28.603Z,18.47
2022-12-22T00:06:19.060Z,17.67
2022-12-22T00:08:09.620Z,18.33
2022-12-22T00:09:59.931Z,18.00
2022-12-22T00:11:50.479Z,17.77
2022-12-22T00:13:40.918Z,18.37
2022-12-22T00:15:33.420Z,19.03
2022-12-22T00:17:30.333Z,18.23
2022-12-22T00:19:22.651Z,18.70
2022-12-22T00:21:13.107Z,17.93
2022-12-22T00:23:03.458Z,17.23
2022-12-22T00:24:54.034Z,18.90
2022-12-22T00:26:46.949Z,18.83
2022-12-22T00:28:37.289Z,17.73
2022-12-22T00:30:32.167Z,18.67
2022-12-22T00:32:23.704Z,18.53
2022-12-22T00:34:14.144Z,18.80
2022-12-22T00:36:06.099Z,18.57
2022-12-22T00:37:56.766Z,18.47
2022-12-22T00:39:47.071Z,18.93
2022-12-22T00:41:37.631Z,19.87
2022-12-22T00:43:27.894Z,19.20
2022-12-22T00:45:18.314Z,18.63
2022-12-22T00:47:09.011Z,18.07
2022-12-22T00:49:01.535Z,17.97
2022-12-22T00:50:54.637Z,20.33
2022-12-22T00:52:46.544Z,20.30
2022-12-22T00:54:37.871Z,19.27
2022-12-22T00:56:28.693Z,18.93
2022-12-22T00:58:19.948Z,18.87
2022-12-22T01:00:17.550Z,19.53
2022-12-22T01:02:08.141Z,19.23
2022-12-22T01:03:58.883Z,18.30
2022-12-22T01:05:49.646Z,17.97
2022-12-22T01:07:43.659Z,18.50
2022-12-22T01:09:36.193Z,18.50
2022-12-22T01:11:26.674Z,17.80
2022-12-22T01:13:17.760Z,17.93
2022-12-22T01:15:08.396Z,17.20
2022-12-22T01:16:58.774Z,18.03
2022-12-22T01:18:49.427Z,17.67
2022-12-22T01:20:39.787Z,16.90
2022-12-22T01:22:30.964Z,17.17
2022-12-22T01:24:24.288Z,17.00
2022-12-22T01:26:16.261Z,17.07
2022-12-22T01:28:06.640Z,16.90
2022-12-22T01:29:57.129Z,16.67
2022-12-22T01:31:49.956Z,16.63
2022-12-22T01:33:40.446Z,16.80
2022-12-22T01:35:37.746Z,16.67
2022-12-22T01:37:28.354Z,15.87
2022-12-22T01:39:18.807Z,16.47
2022-12-22T01:41:10.375Z,16.93
2022-12-22T01:43:02.051Z,15.77
2022-12-22T01:44:53.178Z,15.67
2022-12-22T01:46:46.326Z,15.70
2022-12-22T01:48:38.932Z,16.53
2022-12-22T01:50:30.106Z,15.73
2022-12-22T01:52:21.035Z,16.20
2022-12-22T01:54:12.564Z,16.40
2022-12-22T01:56:03.769Z,16.63
2022-12-22T01:57:55.827Z,16.20
2022-12-22T01:59:47.805Z,16.57
2022-12-22T02:01:38.180Z,15.20
2022-12-22T02:03:35.953Z,16.70
2022-12-22T02:05:29.239Z,16.57
2022-12-22T02:07:31.866Z,15.50
2022-12-22T02:09:44.322Z,14.97
2022-12-22T02:11:46.488Z,15.20
2022-12-22T02:13:44.388Z,15.47
2022-12-22T02:15:44.191Z,15.53
2022-12-22T02:17:39.792Z,15.40
2022-12-22T02:19:42.205Z,15.77
2022-12-22T02:21:36.722Z,15.77
2022-12-22T02:23:38.735Z,14.43
2022-12-22T02:25:33.957Z,15.37
2022-12-22T02:27:27.508Z,14.80
2022-12-22T02:29:18.201Z,15.93
2022-12-22T02:31:10.096Z,15.63
2022-12-22T02:33:09.266Z,15.23
2022-12-22T02:35:00.711Z,13.90
2022-12-22T02:36:58.076Z,14.40
2022-12-22T02:38:58.831Z,14.70
2022-12-22T02:40:58.710Z,13.90
2022-12-22T02:42:54.157Z,14.93
2022-12-22T02:44:52.479Z,14.70
2022-12-22T02:46:48.749Z,13.73
2022-12-22T02:48:43.016Z,14.37
2022-12-22T02:50:40.551Z,14.33
2022-12-22T02:52:36.872Z,13.90
2022-12-22T02:54:28.232Z,14.47
2022-12-22T02:56:23.131Z,13.93
2022-12-22T02:58:18.174Z,13.60
2022-12-22T03:00:09.054Z,14.97
2022-12-22T03:02:02.990Z,14.67
2022-12-22T03:03:53.703Z,14.33
2022-12-22T03:05:44.603Z,14.40
2022-12-22T03:07:35.362Z,14.37
2022-12-22T03:09:25.723Z,15.90
2022-12-22T03:11:16.063Z,15.47
2022-12-22T03:13:06.414Z,15.47
2022-12-22T03:14:58.366Z,16.27
2022-12-22T03:16:48.688Z,15.73
2022-12-22T03:18:39.355Z,16.47
2022-12-22T03:20:29.691Z,16.13
2022-12-22T03:22:20.335Z,16.27
2022-12-22T03:24:10.696Z,17.10
2022-12-22T03:25:55.969Z,16.83
2022-12-22T03:27:29.039Z,16.60
2022-12-22T03:29:02.149Z,17.53
2022-12-22T03:30:37.476Z,16.80
2022-12-22T03:32:10.545Z,16.83
2022-12-22T03:33:43.596Z,16.83
2022-12-22T03:35:15.754Z,16.97
2022-12-22T03:36:48.828Z,17.93
2022-12-22T03:38:21.058Z,17.13
2022-12-22T03:39:54.130Z,16.43
2022-12-22T03:41:45.095Z,16.87
2022-12-22T03:43:36.833Z,16.97
2022-12-22T03:45:28.673Z,16.97
2022-12-22T03:47:03.190Z,16.53
2022-12-22T03:48:36.331Z,15.63
2022-12-22T03:50:09.786Z,16.73
2022-12-22T03:51:44.964Z,16.63
2022-12-22T03:53:17.053Z,16.60
2022-12-22T03:54:50.223Z,16.80
2022-12-22T03:56:22.306Z,17.17
2022-12-22T03:57:55.384Z,16.87
2022-12-22T03:59:28.516Z,16.73
2022-12-22T04:01:08.709Z,16.33
2022-12-22T04:02:43.230Z,14.97
2022-12-22T04:04:17.786Z,16.50
2022-12-22T04:05:50.848Z,15.77
2022-12-22T04:07:22.941Z,15.60
2022-12-22T04:08:56.545Z,14.77
2022-12-22T04:10:47.088Z,16.07
2022-12-22T04:12:37.805Z,16.47
2022-12-22T04:14:10.934Z,15.27
2022-12-22T04:15:44.036Z,15.57
2022-12-22T04:17:17.099Z,16.47
2022-12-22T04:18:51.554Z,16.27
2022-12-22T04:20:27.797Z,16.53
2022-12-22T04:22:01.192Z,16.73
2022-12-22T04:23:34.316Z,17.60
2022-12-22T04:25:07.591Z,16.93
2022-12-22T04:26:40.967Z,17.67
2022-12-22T04:28:14.066Z,17.50
2022-12-22T04:29:46.177Z,16.87
2022-12-22T04:31:20.026Z,17.07
2022-12-22T04:32:53.167Z,16.80
2022-12-22T04:34:26.610Z,17.40
2022-12-22T04:35:59.657Z,16.73
2022-12-22T04:37:32.707Z,17.13
2022-12-22T04:39:05.806Z,17.50
2022-12-22T04:40:37.998Z,16.80
2022-12-22T04:42:11.089Z,17.43
2022-12-22T04:43:44.168Z,16.07
2022-12-22T04:45:17.328Z,16.50
2022-12-22T04:46:49.410Z,16.13
2022-12-22T04:48:22.879Z,17.30
2022-12-22T04:49:57.311Z,16.90
2022-12-22T04:51:30.398Z,15.50
2022-12-22T04:53:04.105Z,17.97
2022-12-22T04:54:37.276Z,16.90
2022-12-22T04:56:10.326Z,17.27
2022-12-22T04:57:43.411Z,17.20
2022-12-22T04:59:16.454Z,16.47
2022-12-22T05:00:49.550Z,17.70
2022-12-22T05:02:23.082Z,18.50
2022-12-22T05:03:55.396Z,18.00
2022-12-22T05:05:29.839Z,17.27
2022-12-22T05:07:02.901Z,17.37
2022-12-22T05:08:35.031Z,17.33
2022-12-22T05:10:09.355Z,18.23
2022-12-22T05:11:42.424Z,16.97
2022-12-22T05:13:14.525Z,16.57
2022-12-22T05:14:47.578Z,16.27
2022-12-22T05:16:20.738Z,16.00
2022-12-22T05:17:53.135Z,17.47
2022-12-22T05:19:30.709Z,17.10
2022-12-22T05:21:08.350Z,16.63
2022-12-22T05:22:41.459Z,17.33
2022-12-22T05:24:14.629Z,16.93
2022-12-22T05:25:47.679Z,16.77
2022-12-22T05:27:19.749Z,16.20
2022-12-22T05:28:52.884Z,16.03
2022-12-22T05:30:26.546Z,16.53
2022-12-22T05:31:59.693Z,16.43
2022-12-22T05:33:33.106Z,16.10
2022-12-22T05:35:07.494Z,16.27
2022-12-22T05:36:41.952Z,15.93
2022-12-22T05:38:15.071Z,16.67
2022-12-22T05:39:48.156Z,15.80
2022-12-22T05:41:21.208Z,16.57
2022-12-22T05:42:54.757Z,15.53
2022-12-22T05:44:26.836Z,15.57
2022-12-22T05:46:03.171Z,16.00
2022-12-22T05:47:35.665Z,14.70
2022-12-22T05:49:08.803Z,16.10
2022-12-22T05:50:41.867Z,15.37
2022-12-22T05:52:16.358Z,15.90
2022-12-22T05:53:49.447Z,15.17
2022-12-22T05:55:22.510Z,15.10
2022-12-22T05:56:55.581Z,15.53
2022-12-22T05:58:28.677Z,15.87
2022-12-22T06:00:01.941Z,14.60
2022-12-22T06:01:44.882Z,15.43
2022-12-22T06:03:18.160Z,14.20
2022-12-22T06:04:51.315Z,14.90
2022-12-22T06:06:24.428Z,15.10
2022-12-22T06:07:58.892Z,14.20
2022-12-22T06:09:31.041Z,13.87
2022-12-22T06:11:04.151Z,13.90
2022-12-22T06:12:37.318Z,14.00
2022-12-22T06:14:10.557Z,15.20
2022-12-22T06:15:43.683Z,14.37
2022-12-22T06:17:16.800Z,14.67
2022-12-22T06:18:49.889Z,14.87
2022-12-22T06:20:22.942Z,13.87
2022-12-22T06:21:55.970Z,14.50
2022-12-22T06:23:30.667Z,15.23
2022-12-22T06:25:03.801Z,14.20
2022-12-22T06:26:36.881Z,14.57
2022-12-22T06:28:09.950Z,15.47
2022-12-22T06:29:43.052Z,15.07
2022-12-22T06:31:16.177Z,15.70
2022-12-22T06:32:49.312Z,14.90
2022-12-22T06:34:22.416Z,15.20
2022-12-22T06:35:59.050Z,15.73
2022-12-22T06:37:32.783Z,15.10
2022-12-22T06:39:07.295Z,15.40
2022-12-22T06:40:40.401Z,14.63
2022-12-22T06:42:31.115Z,14.73
2022-12-22T06:44:03.222Z,15.77
2022-12-22T06:45:36.327Z,14.73
2022-12-22T06:47:09.450Z,15.40
2022-12-22T06:48:42.508Z,15.00
2022-12-22T06:50:15.561Z,14.70
2022-12-22T06:51:48.841Z,14.83
2022-12-22T06:53:21.961Z,15.43
2022-12-22T06:54:56.373Z,14.70
2022-12-22T06:56:29.470Z,14.70
2022-12-22T06:58:02.579Z,14.30
2022-12-22T06:59:35.715Z,16.20
2022-12-22T07:01:08.761Z,15.20
2022-12-22T07:02:42.005Z,16.03
2022-12-22T07:04:19.766Z,15.43
2022-12-22T07:05:52.977Z,15.17
2022-12-22T07:07:26.130Z,15.50
2022-12-22T07:08:59.244Z,15.70
2022-12-22T07:10:50.977Z,16.63
2022-12-22T07:12:24.087Z,15.53
2022-12-22T07:13:57.146Z,15.07
2022-12-22T07:15:30.203Z,14.83
2022-12-22T07:17:03.231Z,13.90
2022-12-22T07:18:38.326Z,13.97
2022-12-22T07:20:12.677Z,12.07
2022-12-22T07:21:47.997Z,12.27
2022-12-22T07:23:21.330Z,10.83
2022-12-22T07:24:54.827Z,10.17
2022-12-22T07:26:29.247Z,10.53
2022-12-22T07:28:02.340Z,8.77
2022-12-22T07:29:36.309Z,9.97
2022-12-22T07:31:10.505Z,9.77
2022-12-22T07:32:43.580Z,9.73
2022-12-22T07:34:16.810Z,8.53
2022-12-22T07:35:49.875Z,9.67
2022-12-22T07:37:23.223Z,9.37
2022-12-22T07:38:56.390Z,8.80
2022-12-22T07:40:29.798Z,8.30
2022-12-22T07:42:21.792Z,9.00
2022-12-22T07:43:55.425Z,9.10
2022-12-22T07:45:29.370Z,8.70
2022-12-22T07:47:02.490Z,8.30
2022-12-22T07:48:53.028Z,8.83
2022-12-22T07:50:25.170Z,10.50
2022-12-22T07:51:58.516Z,12.33
2022-12-22T07:53:31.634Z,12.00
2022-12-22T07:55:04.981Z,13.43
2022-12-22T07:56:38.536Z,14.00
2022-12-22T07:58:13.001Z,13.47
2022-12-22T07:59:46.079Z,14.23
2022-12-22T08:01:19.176Z,14.93
2022-12-22T08:02:53.503Z,14.20
2022-12-22T08:04:27.032Z,13.90
2022-12-22T08:06:05.365Z,14.37
2022-12-22T08:07:38.437Z,14.57
2022-12-22T08:09:15.662Z,15.00
2022-12-22T08:10:48.723Z,13.93
2022-12-22T08:12:21.925Z,13.93
2022-12-22T08:14:01.329Z,14.43
2022-12-22T08:15:34.898Z,13.33
2022-12-22T08:17:07.979Z,13.63
2022-12-22T08:18:41.672Z,12.50
2022-12-22T08:20:14.866Z,12.87
2022-12-22T08:21:52.944Z,12.90
2022-12-22T08:23:26.489Z,12.77
2022-12-22T08:25:00.479Z,13.37
2022-12-22T08:26:39.282Z,11.93
2022-12-22T08:28:15.426Z,12.53
2022-12-22T08:29:53.549Z,11.67
2022-12-22T08:31:28.838Z,12.10
2022-12-22T08:33:02.553Z,11.60
2022-12-22T08:34:35.693Z,12.03
2022-12-22T08:36:10.515Z,12.13
2022-12-22T08:37:45.655Z,12.40
2022-12-22T08:39:21.281Z,11.70
2022-12-22T08:40:54.544Z,11.87
2022-12-22T08:42:28.088Z,10.40
2022-12-22T08:44:01.223Z,11.53
2022-12-22T08:45:35.759Z,8.57
2022-12-22T08:47:16.420Z,7.53
2022-12-22T08:48:51.192Z,7.47
2022-12-22T08:50:24.588Z,7.10
2022-12-22T08:51:57.908Z,6.63
2022-12-22T08:54:03.388Z,6.77
2022-12-22T08:55:24.064Z,7.17
2022-12-22T08:56:58.609Z,6.30
2022-12-22T08:58:31.792Z,6.73
2022-12-22T09:00:06.446Z,6.53
2022-12-22T09:01:44.224Z,6.80
2022-12-22T09:03:17.634Z,6.57
2022-12-22T09:04:50.702Z,6.63
2022-12-22T09:06:27.545Z,6.47
2022-12-22T09:08:02.671Z,6.27
2022-12-22T09:09:35.844Z,7.17
2022-12-22T09:11:08.906Z,6.67
2022-12-22T09:12:42.135Z,6.47
2022-12-22T09:14:15.647Z,6.70
2022-12-22T09:15:49.125Z,6.83
2022-12-22T09:17:23.564Z,6.37
2022-12-22T09:18:56.714Z,6.77
2022-12-22T09:20:29.794Z,6.40
2022-12-22T09:22:02.914Z,6.90
2022-12-22T09:23:36.107Z,6.30
2022-12-22T09:25:10.801Z,7.30
2022-12-22T09:26:44.024Z,5.80
2022-12-22T09:28:17.127Z,6.83
2022-12-22T09:29:50.259Z,6.57
2022-12-22T09:31:24.426Z,7.00
2022-12-22T09:32:58.929Z,8.00
2022-12-22T09:34:32.153Z,8.20
2022-12-22T09:36:08.184Z,7.57
2022-12-22T09:37:42.395Z,8.43
2022-12-22T09:39:15.895Z,8.67
2022-12-22T09:40:49.122Z,8.87
2022-12-22T09:42:23.972Z,8.73
2022-12-22T09:43:57.703Z,8.83
2022-12-22T09:45:33.862Z,8.90
2022-12-22T09:47:17.606Z,8.33
2022-12-22T09:48:53.110Z,8.27
2022-12-22T09:50:27.961Z,8.60
2022-12-22T09:52:03.574Z,7.00
2022-12-22T09:53:36.635Z,7.70
2022-12-22T09:55:16.578Z,7.20
2022-12-22T09:56:49.702Z,7.00
2022-12-22T09:58:28.055Z,7.00
2022-12-22T10:00:08.098Z,6.40
2022-12-22T10:02:03.901Z,6.30
2022-12-22T10:03:45.139Z,6.70
2022-12-22T10:05:28.541Z,5.97
2022-12-22T10:07:13.433Z,5.20
2022-12-22T10:08:46.871Z,5.93
2022-12-22T10:10:25.418Z,6.30
2022-12-22T10:12:00.632Z,6.10
2022-12-22T10:13:33.875Z,6.27
2022-12-22T10:15:16.902Z,7.00
2022-12-22T10:17:16.197Z,5.67
2022-12-22T10:18:58.878Z,5.90
2022-12-22T10:20:33.778Z,5.83
2022-12-22T10:22:31.401Z,5.73
2022-12-22T10:24:17.186Z,5.80
2022-12-22T10:28:01.633Z,5.20
2022-12-22T10:29:35.767Z,5.20
2022-12-22T10:31:16.430Z,4.87
2022-12-22T10:33:05.668Z,5.13
2022-12-22T10:34:38.804Z,5.20
2022-12-22T10:36:14.876Z,4.93
2022-12-22T10:37:48.157Z,5.27
2022-12-22T10:39:25.016Z,5.03
2022-12-22T10:41:02.621Z,4.60
2022-12-22T10:42:36.668Z,4.80
2022-12-22T10:44:12.191Z,4.57
2022-12-22T10:45:48.952Z,4.10
2022-12-22T10:47:25.853Z,4.00
2022-12-22T10:49:11.465Z,4.73
2022-12-22T10:50:49.826Z,4.57
2022-12-22T10:52:30.506Z,4.03
2022-12-22T10:54:04.553Z,4.80
2022-12-22T10:55:39.356Z,4.47
2022-12-22T10:57:28.699Z,4.00
2022-12-22T10:59:14.789Z,3.63
2022-12-22T11:01:03.050Z,3.57
2022-12-22T11:02:38.887Z,4.10
2022-12-22T11:04:22.807Z,4.60
2022-12-22T11:05:57.449Z,5.50
2022-12-22T11:07:34.820Z,5.67
2022-12-22T11:09:31.815Z,6.17
2022-12-22T11:11:10.750Z,6.37
2022-12-22T11:13:00.299Z,7.37
2022-12-22T11:14:42.448Z,7.17
2022-12-22T11:16:21.512Z,7.40
2022-12-22T11:18:02.235Z,7.33
2022-12-22T11:19:56.019Z,6.50
2022-12-22T11:21:38.326Z,6.73
2022-12-22T11:23:20.445Z,9.20
2022-12-22T11:25:07.250Z,6.07
2022-12-22T11:26:48.599Z,6.03
2022-12-22T11:28:34.177Z,6.37
2022-12-22T11:30:12.958Z,7.03
2022-12-22T11:32:08.008Z,6.80
2022-12-22T11:33:54.110Z,6.40
2022-12-22T11:35:37.659Z,7.30
2022-12-22T11:37:21.500Z,8.67
2022-12-22T11:39:02.998Z,9.40
2022-12-22T11:40:42.477Z,8.90
2022-12-22T11:42:32.689Z,9.00
2022-12-22T11:44:26.126Z,9.50
2022-12-22T11:46:14.307Z,8.47
2022-12-22T11:47:55.372Z,9.00
2022-12-22T11:49:51.977Z,8.90
2022-12-22T11:51:40.776Z,7.57
2022-12-22T11:53:42.233Z,7.33
2022-12-22T11:55:25.985Z,7.30
2022-12-22T11:57:04.913Z,8.97
2022-12-22T11:59:07.622Z,9.47
2022-12-22T12:03:14.672Z,7.13
2022-12-22T12:05:12.392Z,7.40
2022-12-22T12:07:01.212Z,7.60
2022-12-22T12:08:45.391Z,6.93
2022-12-22T12:10:28.274Z,6.93
2022-12-22T12:12:06.991Z,7.67
2022-12-22T12:13:46.596Z,6.33
2022-12-22T12:15:28.918Z,6.47
2022-12-22T12:17:07.514Z,6.97
2022-12-22T12:19:05.119Z,5.93
2022-12-22T12:20:52.390Z,5.90
2022-12-22T12:22:37.643Z,6.80
2022-12-22T12:24:50.185Z,6.60
2022-12-22T12:26:29.503Z,6.27
2022-12-22T12:28:14.705Z,6.57
2022-12-22T12:30:28.571Z,6.70
2022-12-22T12:31:59.159Z,6.17
2022-12-22T12:33:39.724Z,5.93
2022-12-22T12:35:29.341Z,6.40
2022-12-22T12:37:08.018Z,6.33
2022-12-22T12:39:09.176Z,6.27
2022-12-22T12:40:48.247Z,5.87
2022-12-22T12:42:28.380Z,5.40
2022-12-22T12:44:03.547Z,6.07
2022-12-22T12:45:39.731Z,6.03
2022-12-22T12:47:24.000Z,6.50
2022-12-22T12:48:57.533Z,7.23
2022-12-22T12:50:34.293Z,7.13
2022-12-22T12:52:08.118Z,7.33
2022-12-22T12:54:01.594Z,7.00
2022-12-22T12:55:36.151Z,6.30
2022-12-22T12:57:27.186Z,7.30
2022-12-22T12:59:02.394Z,5.57
2022-12-22T13:00:49.937Z,6.50
2022-12-22T13:02:36.615Z,5.73
2022-12-22T13:04:10.775Z,6.07
2022-12-22T13:05:52.582Z,6.00
2022-12-22T13:08:02.869Z,5.53
2022-12-22T13:09:52.088Z,5.80
2022-12-22T13:12:10.487Z,5.93
2022-12-22T13:13:50.212Z,4.00
2022-12-22T13:15:35.588Z,3.97
2022-12-22T13:17:34.044Z,4.73
2022-12-22T13:19:18.074Z,5.00
2022-12-22T13:21:12.279Z,4.67
2022-12-22T13:22:53.760Z,1.70
2022-12-22T13:24:30.808Z,1.73
2022-12-22T13:26:09.982Z,1.47
2022-12-22T13:27:43.158Z,1.17
2022-12-22T13:29:24.648Z,0.93
2022-12-22T13:31:03.584Z,0.70
2022-12-22T13:32:41.274Z,0.70
2022-12-22T13:35:04.257Z,0.67
2022-12-22T13:36:37.577Z,0.60
2022-12-22T13:38:30.226Z,0.70
2022-12-22T13:40:18.915Z,0.80
2022-12-22T13:41:53.345Z,0.87
2022-12-22T13:43:28.687Z,0.70
2022-12-22T13:45:02.384Z,0.70
2022-12-22T13:46:38.584Z,0.77
2022-12-22T13:48:16.634Z,0.60
2022-12-22T13:50:08.480Z,0.60
2022-12-22T13:51:43.596Z,0.70
2022-12-22T13:54:06.449Z,0.50
2022-12-22T13:55:17.292Z,0.70
2022-12-22T13:56:53.583Z,0.70
2022-12-22T13:58:28.728Z,0.63
2022-12-22T14:00:02.766Z,0.70
2022-12-22T14:01:51.957Z,0.70
2022-12-22T14:03:58.153Z,0.50
2022-12-22T14:05:19.158Z,0.63
2022-12-22T14:06:52.690Z,0.70
2022-12-22T14:08:25.870Z,0.67
2022-12-22T14:09:59.471Z,0.80
2022-12-22T14:11:32.705Z,0.70
2022-12-22T14:13:15.218Z,0.63
2022-12-22T14:14:50.555Z,0.50
2022-12-22T14:16:24.028Z,0.60
2022-12-22T14:17:58.572Z,0.80
2022-12-22T14:19:34.854Z,0.70
2022-12-22T14:21:08.965Z,0.70
2022-12-22T14:22:46.206Z,0.70
2022-12-22T14:24:25.648Z,0.60
2022-12-22T14:26:01.750Z,0.70
2022-12-22T14:27:38.367Z,0.50
2022-12-22T14:29:15.868Z,0.60
2022-12-22T14:30:51.839Z,0.80
2022-12-22T14:32:40.083Z,0.70
2022-12-22T14:34:27.452Z,0.70
2022-12-22T14:36:23.749Z,0.60
2022-12-22T14:38:09.960Z,0.70
2022-12-22T14:39:42.990Z,0.60
2022-12-22T14:41:49.065Z,0.80
2022-12-22T14:43:27.790Z,0.90
2022-12-22T14:45:00.995Z,0.90
2022-12-22T14:46:38.931Z,1.00
2022-12-22T14:48:19.951Z,0.67
2022-12-22T14:49:57.122Z,0.60
2022-12-22T14:51:30.231Z,0.83
2022-12-22T14:53:06.670Z,0.87
2022-12-22T14:54:40.496Z,0.60
2022-12-22T14:56:15.432Z,0.73
2022-12-22T14:57:54.618Z,0.80
2022-12-22T14:59:29.615Z,0.93
2022-12-22T15:01:29.688Z,1.00
2022-12-22T15:03:05.932Z,0.70
2022-12-22T15:04:39.147Z,0.70
2022-12-22T15:06:35.221Z,0.80
2022-12-22T15:08:23.615Z,0.77
2022-12-22T15:10:14.967Z,0.90
2022-12-22T15:11:51.763Z,1.37
2022-12-22T15:13:25.788Z,0.80
2022-12-22T15:14:58.841Z,1.20
2022-12-22T15:16:32.379Z,0.80
2022-12-22T15:18:05.705Z,0.80
2022-12-22T15:19:38.823Z,0.77
2022-12-22T15:21:15.164Z,0.77
2022-12-22T15:22:50.260Z,0.80
2022-12-22T15:24:23.369Z,0.63
2022-12-22T15:25:56.427Z,0.60
2022-12-22T15:27:29.464Z,0.90
2022-12-22T15:29:02.765Z,0.80
2022-12-22T15:30:36.877Z,0.90
2022-12-22T15:32:12.943Z,0.80
2022-12-22T15:33:46.648Z,0.87
2022-12-22T15:35:26.405Z,0.80
2022-12-22T15:36:59.480Z,0.90
2022-12-22T15:38:38.654Z,0.73
2022-12-22T15:40:20.556Z,1.13
2022-12-22T15:41:54.596Z,1.13
2022-12-22T15:43:56.512Z,1.60
2022-12-22T15:45:22.469Z,1.27
2022-12-22T15:46:57.365Z,1.40
2022-12-22T15:48:34.159Z,1.37
2022-12-22T15:50:09.125Z,1.80
2022-12-22T15:51:44.532Z,1.40
2022-12-22T15:53:19.843Z,2.00
2022-12-22T15:54:54.885Z,1.60
2022-12-22T15:56:31.185Z,1.20
2022-12-22T15:58:04.935Z,1.40
2022-12-22T15:59:39.832Z,1.10
2022-12-22T16:01:13.646Z,1.20
2022-12-22T16:02:46.940Z,1.30
2022-12-22T16:04:20.665Z,1.70
2022-12-22T16:05:54.552Z,2.50
2022-12-22T16:07:27.632Z,3.40
2022-12-22T16:09:01.641Z,2.43
2022-12-22T16:10:36.156Z,1.50
2022-12-22T16:12:16.100Z,1.70
2022-12-22T16:13:50.234Z,1.60
2022-12-22T16:15:23.555Z,1.37
2022-12-22T16:16:56.583Z,1.53
2022-12-22T16:18:29.631Z,1.60
2022-12-22T16:20:02.703Z,1.73
2022-12-22T16:21:35.739Z,1.20
2022-12-22T16:23:13.810Z,1.40
2022-12-22T16:24:49.684Z,1.53
2022-12-22T16:26:24.198Z,1.50
2022-12-22T16:27:57.329Z,1.50
2022-12-22T16:29:31.126Z,1.40
2022-12-22T16:31:04.329Z,1.80
2022-12-22T16:32:37.780Z,1.90
2022-12-22T16:34:11.936Z,1.80
2022-12-22T16:35:45.848Z,2.20
2022-12-22T16:37:18.938Z,1.97
2022-12-22T16:38:51.976Z,1.70
2022-12-22T16:40:25.644Z,2.10
2022-12-22T16:42:00.898Z,2.20
2022-12-22T16:43:50.561Z,2.40
2022-12-22T16:45:26.760Z,2.40
2022-12-22T16:47:00.200Z,2.30
2022-12-22T16:48:37.675Z,2.57
2022-12-22T16:50:17.664Z,2.30
2022-12-22T16:51:53.978Z,2.50
2022-12-22T16:53:28.542Z,2.30
2022-12-22T16:55:01.565Z,2.87
2022-12-22T16:56:34.923Z,2.93
2022-12-22T16:58:13.800Z,3.53
2022-12-22T16:59:47.345Z,3.90
2022-12-22T17:01:28.531Z,4.60
2022-12-22T17:03:06.716Z,4.60
2022-12-22T17:04:40.249Z,5.53
2022-12-22T17:06:13.480Z,6.10
2022-12-22T17:07:46.554Z,7.07
2022-12-22T17:09:23.369Z,7.90
2022-12-22T17:11:01.193Z,7.70
2022-12-22T17:12:39.458Z,7.77
2022-12-22T17:14:24.216Z,8.50
2022-12-22T17:15:57.351Z,8.60
2022-12-22T17:17:34.250Z,9.93
2022-12-22T17:19:12.295Z,9.37
2022-12-22T17:20:46.517Z,10.40
2022-12-22T17:22:23.503Z,10.47
2022-12-22T17:24:03.626Z,9.90
2022-12-22T17:25:36.741Z,10.03
2022-12-22T17:27:12.190Z,10.10
2022-12-22T17:28:45.766Z,10.33
2022-12-22T17:30:22.510Z,10.13
2022-12-22T17:31:56.625Z,9.97
2022-12-22T17:33:29.927Z,11.20
2022-12-22T17:35:02.987Z,10.87
2022-12-22T17:36:39.672Z,10.77
2022-12-22T17:38:15.316Z,10.60
2022-12-22T17:39:51.128Z,10.97
2022-12-22T17:41:24.304Z,11.00
2022-12-22T17:42:58.739Z,10.53
2022-12-22T17:44:31.792Z,11.40
2022-12-22T17:46:12.818Z,10.33
2022-12-22T17:47:47.426Z,11.50
2022-12-22T17:49:22.480Z,11.17
2022-12-22T17:50:55.774Z,11.17
2022-12-22T17:52:28.910Z,10.90
2022-12-22T17:54:02.149Z,11.40
2022-12-22T17:56:07.837Z,11.50
2022-12-22T17:57:32.909Z,10.97
2022-12-22T17:59:05.987Z,11.10
2022-12-22T18:00:39.250Z,11.10
2022-12-22T18:02:18.230Z,11.30
2022-12-22T18:03:51.855Z,10.70
2022-12-22T18:05:27.584Z,10.03
2022-12-22T18:07:00.736Z,10.43
2022-12-22T18:08:33.832Z,10.47
2022-12-22T18:10:09.249Z,9.87
2022-12-22T18:11:46.084Z,9.50
2022-12-22T18:13:22.432Z,9.80
2022-12-22T18:14:55.862Z,10.13
2022-12-22T18:16:29.392Z,10.23
2022-12-22T18:18:03.956Z,11.60
2022-12-22T18:19:37.028Z,12.13
2022-12-22T18:21:15.632Z,10.90
2022-12-22T18:22:50.033Z,10.53
2022-12-22T18:24:23.384Z,10.27
2022-12-22T18:25:56.760Z,10.60
2022-12-22T18:27:30.004Z,11.33
2022-12-22T18:29:04.125Z,10.30
2022-12-22T18:30:37.261Z,10.07
2022-12-22T18:32:10.885Z,10.20
2022-12-22T18:33:45.425Z,10.30
2022-12-22T18:35:19.575Z,9.77
2022-12-22T18:36:52.643Z,9.73
2022-12-22T18:38:28.878Z,10.23
2022-12-22T18:40:02.567Z,10.10
2022-12-22T18:41:35.858Z,10.40
2022-12-22T18:43:13.700Z,10.63
2022-12-22T18:44:46.766Z,10.83
2022-12-22T18:46:20.073Z,11.07
2022-12-22T18:47:53.272Z,10.73
2022-12-22T18:49:27.657Z,11.63
2022-12-22T18:51:00.766Z,11.97
2022-12-22T18:52:33.906Z,11.27
2022-12-22T18:54:22.156Z,11.27
2022-12-22T18:55:57.026Z,11.27
2022-12-22T18:57:30.116Z,12.10
2022-12-22T18:59:03.189Z,11.80
2022-12-22T19:00:37.807Z,11.63
2022-12-22T19:02:22.754Z,12.00
2022-12-22T19:03:57.429Z,12.33
2022-12-22T19:05:34.372Z,12.53
2022-12-22T19:07:14.261Z,12.33
2022-12-22T19:08:48.314Z,12.50
2022-12-22T19:10:23.300Z,12.73
2022-12-22T19:11:56.372Z,13.17
2022-12-22T19:13:32.986Z,13.03
2022-12-22T19:15:07.952Z,12.43
2022-12-22T19:16:41.076Z,12.10
2022-12-22T19:18:22.613Z,13.57
2022-12-22T19:19:59.688Z,12.97
2022-12-22T19:21:34.092Z,10.87
2022-12-22T19:23:07.196Z,9.83
2022-12-22T19:24:40.431Z,9.97
2022-12-22T19:26:22.020Z,10.37
2022-12-22T19:27:57.852Z,9.83
2022-12-22T19:29:30.940Z,9.50
2022-12-22T19:31:06.011Z,10.83
2022-12-22T19:32:43.339Z,13.60
2022-12-22T19:34:20.617Z,13.77
2022-12-22T19:35:54.284Z,13.53
2022-12-22T19:37:28.863Z,13.97
2022-12-22T19:39:05.037Z,15.07
2022-12-22T19:40:39.035Z,16.50
2022-12-22T19:42:14.826Z,18.00
2022-12-22T19:43:47.887Z,19.00
2022-12-22T19:45:25.057Z,18.27
2022-12-22T19:47:00.130Z,16.13
2022-12-22T19:48:33.188Z,15.23
2022-12-22T19:50:08.237Z,13.60
2022-12-22T19:51:41.280Z,13.07
2022-12-22T19:53:16.177Z,13.77
2022-12-22T19:54:49.213Z,14.10
2022-12-22T19:56:26.510Z,14.23
2022-12-22T19:58:00.218Z,12.23
2022-12-22T19:59:38.940Z,12.20
2022-12-22T20:01:12.921Z,11.57
2022-12-22T20:02:47.249Z,10.77
2022-12-22T20:04:20.417Z,10.27
2022-12-22T20:05:54.032Z,9.60
2022-12-22T20:07:29.043Z,9.70
2022-12-22T20:09:03.499Z,8.77
2022-12-22T20:10:38.082Z,9.23
2022-12-22T20:12:29.405Z,8.37
2022-12-22T20:14:02.582Z,9.00
2022-12-22T20:15:37.997Z,8.77
2022-12-22T20:17:11.595Z,8.33
2022-12-22T20:18:46.497Z,9.23
2022-12-22T20:20:21.172Z,8.90
2022-12-22T20:21:54.232Z,9.43
2022-12-22T20:23:28.774Z,9.40
2022-12-22T20:25:03.322Z,8.60
2022-12-22T20:26:36.355Z,8.70
2022-12-22T20:28:18.789Z,8.53
2022-12-22T20:29:51.948Z,9.77
2022-12-22T20:31:25.517Z,9.30
2022-12-22T20:32:58.814Z,10.23
2022-12-22T20:34:31.851Z,11.30
2022-12-22T20:36:11.911Z,10.47
2022-12-22T20:37:45.410Z,10.80
2022-12-22T20:39:20.512Z,9.90
2022-12-22T20:40:55.298Z,10.00
2022-12-22T20:42:28.371Z,10.13
2022-12-22T20:44:01.391Z,9.57
2022-12-22T20:45:34.516Z,9.90
2022-12-22T20:47:10.197Z,12.17
2022-12-22T20:48:44.871Z,11.83
2022-12-22T20:50:23.694Z,11.83
2022-12-22T20:51:56.759Z,11.50
2022-12-22T20:53:29.869Z,10.53
2022-12-22T20:55:02.967Z,14.10
2022-12-22T20:56:39.330Z,12.77
2022-12-22T20:58:17.403Z,12.63
2022-12-22T20:59:56.055Z,11.00
2022-12-22T21:01:29.696Z,12.97
2022-12-22T21:03:03.051Z,13.33
2022-12-22T21:04:36.292Z,12.47
2022-12-22T21:06:26.468Z,11.40
2022-12-22T21:07:59.560Z,11.27
2022-12-22T21:09:32.591Z,11.10
2022-12-22T21:11:06.255Z,11.43
2022-12-22T21:12:40.698Z,11.53
2022-12-22T21:14:14.526Z,12.43
2022-12-22T21:15:51.768Z,14.97
2022-12-22T21:17:24.847Z,14.67
2022-12-22T21:18:57.901Z,14.37
2022-12-22T21:20:32.347Z,14.67
2022-12-22T21:22:05.411Z,13.90
2022-12-22T21:23:38.779Z,13.77
2022-12-22T21:25:12.177Z,13.33
2022-12-22T21:26:48.270Z,11.60
2022-12-22T21:28:28.190Z,11.10
2022-12-22T21:30:01.313Z,11.10
2022-12-22T21:31:34.728Z,13.50
2022-12-22T21:33:07.971Z,14.43
2022-12-22T21:34:41.174Z,11.83
2022-12-22T21:36:20.499Z,12.10
2022-12-22T21:37:54.639Z,11.73
2022-12-22T21:39:32.542Z,11.77
2022-12-22T21:41:06.073Z,11.80
2022-12-22T21:42:38.137Z,11.47